createdAt,value
2018-12-18T00:00:07.201Z,6.67
2018-12-18T00:01:07.194Z,6.63
2018-12-18T00:02:07.140Z,6.63
2018-12-18T00:03:07.120Z,6.63
2018-12-18T00:04:07.091Z,6.60
2018-12-18T00:05:07.056Z,6.61
2018-12-18T00:06:07.056Z,6.64
2018-12-18T00:07:07.028Z,6.71
2018-12-18T00:08:07.006Z,6.63
2018-12-18T00:09:06.963Z,6.60
2018-12-18T00:10:06.942Z,6.68
2018-12-18T00:11:06.946Z,6.63
2018-12-18T00:12:06.922Z,6.64
2018-12-18T00:13:06.873Z,6.61
2018-12-18T00:14:06.848Z,6.63
2018-12-18T00:15:06.823Z,6.64
2018-12-18T00:16:06.804Z,6.65
2018-12-18T00:17:06.824Z,6.63
2018-12-18T00:18:06.771Z,6.65
2018-12-18T00:19:07.145Z,6.64
2018-12-18T00:20:06.715Z,6.61
2018-12-18T00:21:06.692Z,6.68
2018-12-18T00:22:06.681Z,6.65
2018-12-18T00:23:06.675Z,6.63
2018-12-18T00:24:06.640Z,6.63
2018-12-18T00:25:06.602Z,6.57
2018-12-18T00:26:06.591Z,6.60
2018-12-18T00:27:06.548Z,6.67
2018-12-18T00:28:06.568Z,6.63
2018-12-18T00:29:06.503Z,6.57
2018-12-18T00:30:06.481Z,6.55
2018-12-18T00:31:06.533Z,6.55
2018-12-18T00:32:06.428Z,6.63
2018-12-18T00:33:06.416Z,6.60
2018-12-18T00:34:06.393Z,6.63
2018-12-18T00:35:06.370Z,6.65
2018-12-18T00:36:06.337Z,6.56
2018-12-18T00:37:06.360Z,6.57
2018-12-18T00:38:06.295Z,6.60
2018-12-18T00:39:06.293Z,6.63
2018-12-18T00:40:06.249Z,6.67
2018-12-18T00:41:06.230Z,6.67
2018-12-18T00:42:06.204Z,6.60
2018-12-18T00:43:06.184Z,6.57
2018-12-18T00:44:06.159Z,6.65
2018-12-18T00:45:06.134Z,6.60
2018-12-18T00:46:06.143Z,6.60
2018-12-18T00:47:06.094Z,6.61
2018-12-18T00:48:06.085Z,6.61
2018-12-18T00:49:06.042Z,6.55
2018-12-18T00:50:06.025Z,6.57
2018-12-18T00:51:06.003Z,6.61
2018-12-18T00:52:05.997Z,6.55
2018-12-18T00:53:06.028Z,6.60
2018-12-18T00:54:05.973Z,6.60
2018-12-18T00:55:06.034Z,6.57
2018-12-18T00:56:05.969Z,6.70
2018-12-18T00:57:06.030Z,6.60
2018-12-18T00:58:06.050Z,6.52
2018-12-18T00:59:05.840Z,6.61
2018-12-18T01:00:05.811Z,6.55
2018-12-18T01:01:05.775Z,6.57
2018-12-18T01:02:05.758Z,6.56
2018-12-18T01:03:05.724Z,6.60
2018-12-18T01:04:05.707Z,6.56
2018-12-18T01:05:05.680Z,6.61
2018-12-18T01:06:05.645Z,6.56
2018-12-18T01:07:05.640Z,6.60
2018-12-18T01:08:05.604Z,6.46
2018-12-18T01:09:05.582Z,6.45
2018-12-18T01:10:05.574Z,6.52
2018-12-18T01:11:05.529Z,6.52
2018-12-18T01:12:05.509Z,6.49
2018-12-18T01:13:05.488Z,6.50
2018-12-18T01:14:05.459Z,6.50
2018-12-18T01:15:05.443Z,6.47
2018-12-18T01:16:05.416Z,6.55
2018-12-18T01:17:05.599Z,6.43
2018-12-18T01:18:05.370Z,6.52
2018-12-18T01:19:05.394Z,6.50
2018-12-18T01:20:05.319Z,6.52
2018-12-18T01:21:05.321Z,6.45
2018-12-18T01:22:05.286Z,6.53
2018-12-18T01:23:05.266Z,6.55
2018-12-18T01:24:05.232Z,6.47
2018-12-18T01:25:05.210Z,6.49
2018-12-18T01:26:05.190Z,6.57
2018-12-18T01:27:05.168Z,6.55
2018-12-18T01:28:05.128Z,6.43
2018-12-18T01:29:05.115Z,6.52
2018-12-18T01:30:05.120Z,6.47
2018-12-18T01:31:05.071Z,6.46
2018-12-18T01:32:05.042Z,6.47
2018-12-18T01:33:05.015Z,6.45
2018-12-18T01:34:04.995Z,6.46
2018-12-18T01:35:05.008Z,6.50
2018-12-18T01:36:04.959Z,6.52
2018-12-18T01:37:04.935Z,6.52
2018-12-18T01:38:04.903Z,6.47
2018-12-18T01:39:04.889Z,6.50
2018-12-18T01:40:04.860Z,6.46
2018-12-18T01:41:04.870Z,6.50
2018-12-18T01:42:04.835Z,6.49
2018-12-18T01:43:04.791Z,6.40
2018-12-18T01:44:04.767Z,6.42
2018-12-18T01:45:04.747Z,6.43
2018-12-18T01:46:04.724Z,6.47
2018-12-18T01:47:04.702Z,6.50
2018-12-18T01:48:04.690Z,6.43
2018-12-18T01:49:04.679Z,6.43
2018-12-18T01:50:04.648Z,6.49
2018-12-18T01:51:04.606Z,6.43
2018-12-18T01:52:04.576Z,6.47
2018-12-18T01:53:04.630Z,6.43
2018-12-18T01:54:04.537Z,6.43
2018-12-18T01:55:04.515Z,6.50
2018-12-18T01:56:04.480Z,6.38
2018-12-18T01:57:04.488Z,6.49
2018-12-18T01:58:04.441Z,6.38
2018-12-18T01:59:04.445Z,6.35
2018-12-18T02:00:04.428Z,6.35
2018-12-18T02:01:04.366Z,6.43
2018-12-18T02:02:04.377Z,6.35
2018-12-18T02:03:04.318Z,6.27
2018-12-18T02:04:06.084Z,6.35
2018-12-18T02:05:04.284Z,6.35
2018-12-18T02:06:04.245Z,6.34
2018-12-18T02:07:04.248Z,6.34
2018-12-18T02:08:04.229Z,6.31
2018-12-18T02:09:04.191Z,6.18
2018-12-18T02:10:04.155Z,6.24
2018-12-18T02:11:04.147Z,6.16
2018-12-18T02:12:04.139Z,6.16
2018-12-18T02:13:04.086Z,6.19
2018-12-18T02:14:04.067Z,6.12
2018-12-18T02:15:04.054Z,6.13
2018-12-18T02:16:04.011Z,6.12
2018-12-18T02:17:03.991Z,6.11
2018-12-18T02:18:03.970Z,6.09
2018-12-18T02:19:03.947Z,6.12
2018-12-18T02:20:03.932Z,6.06
2018-12-18T02:21:03.895Z,6.15
2018-12-18T02:22:03.907Z,6.06
2018-12-18T02:23:03.874Z,5.95
2018-12-18T02:24:03.827Z,5.97
2018-12-18T02:25:03.810Z,5.98
2018-12-18T02:26:03.781Z,6.00
2018-12-18T02:27:03.758Z,6.02
2018-12-18T02:28:03.774Z,6.00
2018-12-18T02:29:03.713Z,5.94
2018-12-18T02:30:03.689Z,5.93
2018-12-18T02:31:03.675Z,5.95
2018-12-18T02:32:03.644Z,5.91
2018-12-18T02:33:03.644Z,5.90
2018-12-18T02:34:03.600Z,5.80
2018-12-18T02:35:03.571Z,5.88
2018-12-18T02:36:03.547Z,5.84
2018-12-18T02:37:03.521Z,5.84
2018-12-18T02:38:03.500Z,5.79
2018-12-18T02:39:03.478Z,5.72
2018-12-18T02:40:03.477Z,5.72
2018-12-18T02:41:03.481Z,5.69
2018-12-18T02:42:03.407Z,5.77
2018-12-18T02:43:03.403Z,5.69
2018-12-18T02:44:03.412Z,5.61
2018-12-18T02:45:03.335Z,5.62
2018-12-18T02:46:03.326Z,5.62
2018-12-18T02:47:03.309Z,5.65
2018-12-18T02:48:03.259Z,5.70
2018-12-18T02:49:03.248Z,5.58
2018-12-18T02:50:03.245Z,5.52
2018-12-18T02:51:03.184Z,5.62
2018-12-18T02:52:03.194Z,5.65
2018-12-18T02:53:03.144Z,5.54
2018-12-18T02:54:03.138Z,5.52
2018-12-18T02:55:03.088Z,5.48
2018-12-18T02:56:03.077Z,5.51
2018-12-18T02:57:03.073Z,5.40
2018-12-18T02:58:03.023Z,5.47
2018-12-18T02:59:03.004Z,5.48
2018-12-18T03:00:02.978Z,5.52
2018-12-18T03:01:02.973Z,5.52
2018-12-18T03:02:02.920Z,5.47
2018-12-18T03:03:02.923Z,5.40
2018-12-18T03:04:02.889Z,5.44
2018-12-18T03:05:02.848Z,5.48
2018-12-18T03:06:02.837Z,5.50
2018-12-18T03:07:02.805Z,5.44
2018-12-18T03:08:02.797Z,5.48
2018-12-18T03:09:02.759Z,5.43
2018-12-18T03:10:02.727Z,5.40
2018-12-18T03:11:02.763Z,5.54
2018-12-18T03:12:02.684Z,5.48
2018-12-18T03:13:02.675Z,5.50
2018-12-18T03:14:02.656Z,5.54
2018-12-18T03:15:02.618Z,5.52
2018-12-18T03:16:02.598Z,5.62
2018-12-18T03:17:02.571Z,5.55
2018-12-18T03:18:02.554Z,5.55
2018-12-18T03:19:02.516Z,5.67
2018-12-18T03:20:02.489Z,5.66
2018-12-18T03:21:02.471Z,5.61
2018-12-18T03:22:02.476Z,5.67
2018-12-18T03:23:02.444Z,5.62
2018-12-18T03:24:02.416Z,5.70
2018-12-18T03:25:02.394Z,5.69
2018-12-18T03:26:02.348Z,5.70
2018-12-18T03:27:02.342Z,5.67
2018-12-18T03:28:02.293Z,5.69
2018-12-18T03:29:02.300Z,5.70
2018-12-18T03:30:02.337Z,5.69
2018-12-18T03:31:02.278Z,5.72
2018-12-18T03:32:02.205Z,5.70
2018-12-18T03:33:02.204Z,5.59
2018-12-18T03:34:02.152Z,5.61
2018-12-18T03:35:02.175Z,5.62
2018-12-18T03:36:02.103Z,5.59
2018-12-18T03:37:02.097Z,5.57
2018-12-18T03:38:02.083Z,5.55
2018-12-18T03:39:02.038Z,5.59
2018-12-18T03:40:02.035Z,5.57
2018-12-18T03:41:01.985Z,5.59
2018-12-18T03:42:01.994Z,5.54
2018-12-18T03:43:01.968Z,5.57
2018-12-18T03:44:01.935Z,5.59
2018-12-18T03:45:01.895Z,5.50
2018-12-18T03:46:01.919Z,5.54
2018-12-18T03:47:01.869Z,5.59
2018-12-18T03:48:01.816Z,5.59
2018-12-18T03:49:01.849Z,5.51
2018-12-18T03:50:01.772Z,5.58
2018-12-18T03:51:01.751Z,5.57
2018-12-18T03:52:01.724Z,5.55
2018-12-18T03:53:01.753Z,5.55
2018-12-18T03:54:01.677Z,5.62
2018-12-18T03:55:01.655Z,5.61
2018-12-18T03:56:01.687Z,5.57
2018-12-18T03:57:01.610Z,5.61
2018-12-18T03:58:01.607Z,5.58
2018-12-18T03:59:01.563Z,5.58
2018-12-18T04:00:01.574Z,5.58
2018-12-18T04:01:01.507Z,5.61
2018-12-18T04:02:01.512Z,5.58
2018-12-18T04:03:01.496Z,5.58
2018-12-18T04:04:01.439Z,5.52
2018-12-18T04:05:01.492Z,5.57
2018-12-18T04:06:01.396Z,5.57
2018-12-18T04:07:01.398Z,5.55
2018-12-18T04:08:01.390Z,5.59
2018-12-18T04:09:01.355Z,5.61
2018-12-18T04:10:01.314Z,5.57
2018-12-18T04:11:01.280Z,5.62
2018-12-18T04:12:01.246Z,5.52
2018-12-18T04:13:01.223Z,5.58
2018-12-18T04:14:01.221Z,5.50
2018-12-18T04:15:01.172Z,5.54
2018-12-18T04:16:01.152Z,5.51
2018-12-18T04:17:01.137Z,5.48
2018-12-18T04:18:01.165Z,5.39
2018-12-18T04:19:01.087Z,5.50
2018-12-18T04:20:01.055Z,5.48
2018-12-18T04:21:01.055Z,5.57
2018-12-18T04:22:01.013Z,5.40
2018-12-18T04:23:00.986Z,5.41
2018-12-18T04:24:00.985Z,5.50
2018-12-18T04:25:00.946Z,5.44
2018-12-18T04:26:00.939Z,5.47
2018-12-18T04:27:00.891Z,5.44
2018-12-18T04:28:00.864Z,5.43
2018-12-18T04:29:00.869Z,5.32
2018-12-18T04:30:00.816Z,5.32
2018-12-18T04:31:00.806Z,5.36
2018-12-18T04:32:00.780Z,5.37
2018-12-18T04:33:00.766Z,5.27
2018-12-18T04:34:00.740Z,5.33
2018-12-18T04:35:00.727Z,5.25
2018-12-18T04:36:00.679Z,5.22
2018-12-18T04:37:00.688Z,5.24
2018-12-18T04:38:00.628Z,5.18
2018-12-18T04:39:00.612Z,5.19
2018-12-18T04:40:00.599Z,5.12
2018-12-18T04:41:00.560Z,5.15
2018-12-18T04:42:00.539Z,5.12
2018-12-18T04:43:00.515Z,5.16
2018-12-18T04:44:00.484Z,5.09
2018-12-18T04:45:00.458Z,5.11
2018-12-18T04:46:00.468Z,5.04
2018-12-18T04:47:00.435Z,5.03
2018-12-18T04:48:00.401Z,4.96
2018-12-18T04:49:00.403Z,5.03
2018-12-18T04:50:00.367Z,5.04
2018-12-18T04:51:00.356Z,5.04
2018-12-18T04:52:00.316Z,4.97
2018-12-18T04:53:00.299Z,5.00
2018-12-18T04:54:00.273Z,5.07
2018-12-18T04:55:00.214Z,4.98
2018-12-18T04:56:00.196Z,5.04
2018-12-18T04:57:00.165Z,5.04
2018-12-18T04:58:00.166Z,5.09
2018-12-18T04:59:00.120Z,5.01
2018-12-18T05:00:00.113Z,5.01
2018-12-18T05:01:00.079Z,5.04
2018-12-18T05:02:00.042Z,5.09
2018-12-18T05:03:00.026Z,4.97
2018-12-18T05:04:00.000Z,5.06
2018-12-18T05:04:59.990Z,5.04
2018-12-18T05:05:59.946Z,5.01
2018-12-18T05:06:59.953Z,5.04
2018-12-18T05:07:59.901Z,5.04
2018-12-18T05:08:59.901Z,5.01
2018-12-18T05:09:59.859Z,5.00
2018-12-18T05:10:59.826Z,5.07
2018-12-18T05:11:59.801Z,5.00
2018-12-18T05:12:59.793Z,5.04
2018-12-18T05:13:59.761Z,5.09
2018-12-18T05:14:59.727Z,5.01
2018-12-18T05:15:59.733Z,4.98
2018-12-18T05:16:59.687Z,5.04
2018-12-18T05:17:59.718Z,5.06
2018-12-18T05:18:59.631Z,5.03
2018-12-18T05:19:59.603Z,5.03
2018-12-18T05:20:59.592Z,4.93
2018-12-18T05:21:59.561Z,4.94
2018-12-18T05:22:59.557Z,4.94
2018-12-18T05:23:59.559Z,4.93
2018-12-18T05:24:59.478Z,4.93
2018-12-18T05:25:59.455Z,4.89
2018-12-18T05:26:59.448Z,4.93
2018-12-18T05:27:59.423Z,4.91
2018-12-18T05:28:59.386Z,4.94
2018-12-18T05:29:59.360Z,4.97
2018-12-18T05:30:59.394Z,4.96
2018-12-18T05:31:59.358Z,4.93
2018-12-18T05:32:59.282Z,4.91
2018-12-18T05:33:59.281Z,4.88
2018-12-18T05:34:59.246Z,4.88
2018-12-18T05:35:59.242Z,4.91
2018-12-18T05:36:59.185Z,4.89
2018-12-18T05:37:59.172Z,4.97
2018-12-18T05:38:59.146Z,4.93
2018-12-18T05:39:59.118Z,4.94
2018-12-18T05:40:59.101Z,4.96
2018-12-18T05:41:59.069Z,4.94
2018-12-18T05:42:59.056Z,4.97
2018-12-18T05:43:59.049Z,4.88
2018-12-18T05:44:58.994Z,4.93
2018-12-18T05:45:58.966Z,4.93
2018-12-18T05:46:58.947Z,4.96
2018-12-18T05:47:58.915Z,5.00
2018-12-18T05:48:58.921Z,5.04
2018-12-18T05:49:58.903Z,5.09
2018-12-18T05:50:58.844Z,5.06
2018-12-18T05:51:58.827Z,5.07
2018-12-18T05:52:58.792Z,4.96
2018-12-18T05:53:58.800Z,5.01
2018-12-18T05:54:58.747Z,5.04
2018-12-18T05:55:58.717Z,5.04
2018-12-18T05:56:58.694Z,5.12
2018-12-18T05:57:58.666Z,5.01
2018-12-18T05:58:58.654Z,5.00
2018-12-18T05:59:58.664Z,5.03
2018-12-18T06:00:58.625Z,5.04
2018-12-18T06:01:58.575Z,5.03
2018-12-18T06:02:58.547Z,5.00
2018-12-18T06:03:58.529Z,5.06
2018-12-18T06:05:03.217Z,5.01
2018-12-18T06:05:58.475Z,5.03
2018-12-18T06:06:58.454Z,5.03
2018-12-18T06:07:58.504Z,5.00
2018-12-18T06:08:58.406Z,5.01
2018-12-18T06:09:58.379Z,5.07
2018-12-18T06:10:58.350Z,4.91
2018-12-18T06:11:58.344Z,5.03
2018-12-18T06:12:58.307Z,5.06
2018-12-18T06:13:58.283Z,5.00
2018-12-18T06:14:58.252Z,4.94
2018-12-18T06:15:58.224Z,5.06
2018-12-18T06:16:58.240Z,5.07
2018-12-18T06:17:58.213Z,5.04
2018-12-18T06:18:58.156Z,5.03
2018-12-18T06:19:58.128Z,5.06
2018-12-18T06:20:58.110Z,5.07
2018-12-18T06:21:58.100Z,5.04
2018-12-18T06:22:58.067Z,5.01
2018-12-18T06:23:58.027Z,5.03
2018-12-18T06:24:58.010Z,5.03
2018-12-18T06:25:57.983Z,5.01
2018-12-18T06:26:57.953Z,4.98
2018-12-18T06:27:57.933Z,5.06
2018-12-18T06:28:57.921Z,5.04
2018-12-18T06:29:57.951Z,5.09
2018-12-18T06:30:57.862Z,5.00
2018-12-18T06:31:57.842Z,5.01
2018-12-18T06:32:57.803Z,5.09
2018-12-18T06:33:57.799Z,5.06
2018-12-18T06:34:57.858Z,5.01
2018-12-18T06:35:57.761Z,5.04
2018-12-18T06:36:57.751Z,5.04
2018-12-18T06:37:57.697Z,5.04
2018-12-18T06:38:57.665Z,5.04
2018-12-18T06:39:57.630Z,5.00
2018-12-18T06:40:57.609Z,5.00
2018-12-18T06:41:57.630Z,5.09
2018-12-18T06:42:57.572Z,5.03
2018-12-18T06:43:57.540Z,5.01
2018-12-18T06:44:57.525Z,5.11
2018-12-18T06:45:57.535Z,5.04
2018-12-18T06:46:57.476Z,5.01
2018-12-18T06:47:57.450Z,5.01
2018-12-18T06:48:57.443Z,5.03
2018-12-18T06:49:57.414Z,5.03
2018-12-18T06:50:57.368Z,5.15
2018-12-18T06:51:57.387Z,5.14
2018-12-18T06:52:57.349Z,5.07
2018-12-18T06:53:57.320Z,5.11
2018-12-18T06:54:57.275Z,5.03
2018-12-18T06:55:57.237Z,5.12
2018-12-18T06:56:57.229Z,5.12
2018-12-18T06:57:57.197Z,5.15
2018-12-18T06:58:57.230Z,5.16
2018-12-18T06:59:57.174Z,5.18
2018-12-18T07:00:57.182Z,5.16
2018-12-18T07:01:57.128Z,5.19
2018-12-18T07:02:57.093Z,5.18
2018-12-18T07:03:57.080Z,5.12
2018-12-18T07:04:57.020Z,5.12
2018-12-18T07:05:57.004Z,5.19
2018-12-18T07:06:56.975Z,5.16
2018-12-18T07:07:57.570Z,5.12
2018-12-18T07:08:56.928Z,5.09
2018-12-18T07:09:56.895Z,5.09
2018-12-18T07:10:56.869Z,5.14
2018-12-18T07:11:56.846Z,5.16
2018-12-18T07:12:56.818Z,5.18
2018-12-18T07:13:56.802Z,5.21
2018-12-18T07:14:56.804Z,5.24
2018-12-18T07:15:56.772Z,5.25
2018-12-18T07:16:56.720Z,5.27
2018-12-18T07:17:56.718Z,5.19
2018-12-18T07:18:56.693Z,5.22
2018-12-18T07:19:56.650Z,5.22
2018-12-18T07:20:56.696Z,5.18
2018-12-18T07:21:56.606Z,5.15
2018-12-18T07:22:56.600Z,5.14
2018-12-18T07:23:56.563Z,5.18
2018-12-18T07:24:56.560Z,5.18
2018-12-18T07:25:56.526Z,5.19
2018-12-18T07:26:56.473Z,5.15
2018-12-18T07:27:56.453Z,5.16
2018-12-18T07:28:56.430Z,5.18
2018-12-18T07:29:56.409Z,5.19
2018-12-18T07:30:56.390Z,5.25
2018-12-18T07:31:56.361Z,5.18
2018-12-18T07:32:56.329Z,5.22
2018-12-18T07:33:56.305Z,5.24
2018-12-18T07:34:56.324Z,5.30
2018-12-18T07:35:56.262Z,5.22
2018-12-18T07:36:56.225Z,5.15
2018-12-18T07:37:56.299Z,5.22
2018-12-18T07:38:56.196Z,5.29
2018-12-18T07:39:56.158Z,5.22
2018-12-18T07:40:56.137Z,5.22
2018-12-18T07:41:56.115Z,5.29
2018-12-18T07:42:56.093Z,5.22
2018-12-18T07:43:56.099Z,5.24
2018-12-18T07:44:56.079Z,5.25
2018-12-18T07:45:56.013Z,5.29
2018-12-18T07:46:56.013Z,5.33
2018-12-18T07:47:55.978Z,5.32
2018-12-18T07:48:55.954Z,5.29
2018-12-18T07:49:55.925Z,5.36
2018-12-18T07:50:55.883Z,5.34
2018-12-18T07:51:55.869Z,5.32
2018-12-18T07:52:55.836Z,5.30
2018-12-18T07:53:55.918Z,5.37
2018-12-18T07:54:55.824Z,5.37
2018-12-18T07:56:00.264Z,5.36
2018-12-18T07:56:55.738Z,5.32
2018-12-18T07:57:55.779Z,5.32
2018-12-18T07:58:55.696Z,5.27
2018-12-18T07:59:55.772Z,5.32
2018-12-18T08:00:55.642Z,5.43
2018-12-18T08:01:55.617Z,5.29
2018-12-18T08:02:55.658Z,5.30
2018-12-18T08:03:55.586Z,5.40
2018-12-18T08:04:55.589Z,5.39
2018-12-18T08:05:55.525Z,5.32
2018-12-18T08:06:55.507Z,5.40
2018-12-18T08:07:55.536Z,5.41
2018-12-18T08:08:55.478Z,5.48
2018-12-18T08:09:55.456Z,5.44
2018-12-18T08:10:55.404Z,5.41
2018-12-18T08:11:55.408Z,5.40
2018-12-18T08:12:55.405Z,5.40
2018-12-18T08:13:55.347Z,5.44
2018-12-18T08:14:55.375Z,5.41
2018-12-18T08:15:55.361Z,5.54
2018-12-18T08:16:55.306Z,5.37
2018-12-18T08:17:55.230Z,5.37
2018-12-18T08:18:55.214Z,5.52
2018-12-18T08:19:55.284Z,5.54
2018-12-18T08:20:55.180Z,5.50
2018-12-18T08:21:55.131Z,5.62
2018-12-18T08:22:55.132Z,5.61
2018-12-18T08:23:55.090Z,5.62
2018-12-18T08:24:55.054Z,5.59
2018-12-18T08:25:55.030Z,5.62
2018-12-18T08:26:55.085Z,5.65
2018-12-18T08:27:55.054Z,5.65
2018-12-18T08:28:54.984Z,5.69
2018-12-18T08:29:54.965Z,5.70
2018-12-18T08:30:54.967Z,5.62
2018-12-18T08:31:54.959Z,5.66
2018-12-18T08:32:54.880Z,5.76
2018-12-18T08:33:54.836Z,5.73
2018-12-18T08:34:54.844Z,5.75
2018-12-18T08:35:54.798Z,5.70
2018-12-18T08:36:54.826Z,5.70
2018-12-18T08:37:54.796Z,5.70
2018-12-18T08:38:54.761Z,5.77
2018-12-18T08:39:55.004Z,5.75
2018-12-18T08:40:54.720Z,5.76
2018-12-18T08:41:54.649Z,5.73
2018-12-18T08:42:54.621Z,5.67
2018-12-18T08:43:54.625Z,5.75
2018-12-18T08:44:54.580Z,5.76
2018-12-18T08:45:56.526Z,5.88
2018-12-18T08:46:54.580Z,5.87
2018-12-18T08:47:54.577Z,5.79
2018-12-18T08:48:54.571Z,5.79
2018-12-18T08:49:54.488Z,5.90
2018-12-18T08:50:54.454Z,5.93
2018-12-18T08:51:54.656Z,5.84
2018-12-18T08:52:54.387Z,5.84
2018-12-18T08:53:54.700Z,5.93
2018-12-18T08:54:56.955Z,5.95
2018-12-18T08:55:54.327Z,5.95
2018-12-18T08:56:54.279Z,5.98
2018-12-18T08:57:54.351Z,6.00
2018-12-18T08:58:54.253Z,5.95
2018-12-18T08:59:54.245Z,6.08
2018-12-18T09:00:54.249Z,6.06
2018-12-18T09:01:54.167Z,6.12
2018-12-18T09:02:54.321Z,6.13
2018-12-18T09:03:54.166Z,6.11
2018-12-18T09:04:54.110Z,6.08
2018-12-18T09:05:54.130Z,6.16
2018-12-18T09:06:54.063Z,6.18
2018-12-18T09:07:54.039Z,6.21
2018-12-18T09:08:54.011Z,6.19
2018-12-18T09:09:53.999Z,6.34
2018-12-18T09:10:53.978Z,6.31
2018-12-18T09:11:53.943Z,6.31
2018-12-18T09:12:53.960Z,6.42
2018-12-18T09:13:53.910Z,6.40
2018-12-18T09:14:53.868Z,6.43
2018-12-18T09:15:53.852Z,6.43
2018-12-18T09:16:53.821Z,6.38
2018-12-18T09:17:53.801Z,6.49
2018-12-18T09:18:53.771Z,6.49
2018-12-18T09:19:53.766Z,6.46
2018-12-18T09:20:53.723Z,6.57
2018-12-18T09:21:53.688Z,6.63
2018-12-18T09:22:53.673Z,6.60
2018-12-18T09:23:53.715Z,6.64
2018-12-18T09:24:54.823Z,6.60
2018-12-18T09:25:53.627Z,6.60
2018-12-18T09:26:53.589Z,6.57
2018-12-18T09:27:53.597Z,6.70
2018-12-18T09:28:53.535Z,6.65
2018-12-18T09:29:53.583Z,6.63
2018-12-18T09:30:53.476Z,6.74
2018-12-18T09:31:53.475Z,6.70
2018-12-18T09:32:53.446Z,6.74
2018-12-18T09:33:53.417Z,6.70
2018-12-18T09:34:53.433Z,6.73
2018-12-18T09:35:53.422Z,6.82
2018-12-18T09:36:53.435Z,6.85
2018-12-18T09:37:53.359Z,6.91
2018-12-18T09:38:53.324Z,6.89
2018-12-18T09:39:53.284Z,6.93
2018-12-18T09:40:53.244Z,6.93
2018-12-18T09:41:53.238Z,6.93
2018-12-18T09:42:53.259Z,6.91
2018-12-18T09:43:53.181Z,6.89
2018-12-18T09:44:53.168Z,6.93
2018-12-18T09:45:53.142Z,7.07
2018-12-18T09:46:53.102Z,7.00
2018-12-18T09:47:53.152Z,6.96
2018-12-18T09:48:53.076Z,6.93
2018-12-18T09:49:53.036Z,7.01
2018-12-18T09:50:53.224Z,6.96
2018-12-18T09:51:53.116Z,7.06
2018-12-18T09:52:52.981Z,7.06
2018-12-18T09:53:52.935Z,6.97
2018-12-18T09:54:52.917Z,7.01
2018-12-18T09:55:52.889Z,6.99
2018-12-18T09:56:52.899Z,7.07
2018-12-18T09:57:52.872Z,6.96
2018-12-18T09:58:52.826Z,7.03
2018-12-18T09:59:52.801Z,7.07
2018-12-18T10:00:52.808Z,7.04
2018-12-18T10:01:52.871Z,7.10
2018-12-18T10:02:52.731Z,7.01
2018-12-18T10:03:52.757Z,7.08
2018-12-18T10:04:52.702Z,7.03
2018-12-18T10:05:56.311Z,7.15
2018-12-18T10:06:52.669Z,7.11
2018-12-18T10:07:52.621Z,7.18
2018-12-18T10:08:52.604Z,7.16
2018-12-18T10:09:52.582Z,7.13
2018-12-18T10:10:52.604Z,7.16
2018-12-18T10:11:52.565Z,7.18
2018-12-18T10:12:52.530Z,7.24
2018-12-18T10:13:52.478Z,7.28
2018-12-18T10:14:52.452Z,7.26
2018-12-18T10:15:52.432Z,7.28
2018-12-18T10:16:52.472Z,7.29
2018-12-18T10:17:52.442Z,7.34
2018-12-18T10:18:52.380Z,7.34
2018-12-18T10:19:52.339Z,7.40
2018-12-18T10:20:52.328Z,7.40
2018-12-18T10:21:52.352Z,7.44
2018-12-18T10:22:52.286Z,7.46
2018-12-18T10:23:52.279Z,7.54
2018-12-18T10:24:52.396Z,7.46
2018-12-18T10:25:52.257Z,7.64
2018-12-18T10:26:52.214Z,7.42
2018-12-18T10:27:52.151Z,7.52
2018-12-18T10:28:52.131Z,7.49
2018-12-18T10:29:52.121Z,7.54
2018-12-18T10:30:52.089Z,7.54
2018-12-18T10:31:52.083Z,7.57
2018-12-18T10:32:52.039Z,7.62
2018-12-18T10:33:52.059Z,7.68
2018-12-18T10:34:52.084Z,7.55
2018-12-18T10:35:52.003Z,7.64
2018-12-18T10:36:51.958Z,7.66
2018-12-18T10:37:51.929Z,7.62
2018-12-18T10:38:51.906Z,7.69
2018-12-18T10:39:51.913Z,7.73
2018-12-18T10:40:51.862Z,7.74
2018-12-18T10:41:51.845Z,7.77
2018-12-18T10:42:51.862Z,7.76
2018-12-18T10:43:51.839Z,7.74
2018-12-18T10:44:51.814Z,7.81
2018-12-18T10:45:51.777Z,7.74
2018-12-18T10:46:51.761Z,7.84
2018-12-18T10:47:51.712Z,7.81
2018-12-18T10:48:51.697Z,7.86
2018-12-18T10:49:51.677Z,7.95
2018-12-18T10:50:51.638Z,7.96
2018-12-18T10:51:51.608Z,7.92
2018-12-18T10:52:51.593Z,7.92
2018-12-18T10:53:51.572Z,7.86
2018-12-18T10:54:52.495Z,8.01
2018-12-18T10:55:51.553Z,7.98
2018-12-18T10:56:51.503Z,7.96
2018-12-18T10:57:51.492Z,8.05
2018-12-18T10:58:51.461Z,7.99
2018-12-18T10:59:51.462Z,8.09
2018-12-18T11:00:51.427Z,8.13
2018-12-18T11:01:51.397Z,8.05
2018-12-18T11:02:51.398Z,8.05
2018-12-18T11:03:51.382Z,8.02
2018-12-18T11:04:51.319Z,8.10
2018-12-18T11:05:51.323Z,8.14
2018-12-18T11:06:51.297Z,8.04
2018-12-18T11:07:51.283Z,8.16
2018-12-18T11:08:51.269Z,8.17
2018-12-18T11:09:51.209Z,8.16
2018-12-18T11:10:51.261Z,8.14
2018-12-18T11:11:51.202Z,8.16
2018-12-18T11:12:51.162Z,8.10
2018-12-18T11:13:51.209Z,8.14
2018-12-18T11:14:51.116Z,8.19
2018-12-18T11:15:51.132Z,8.23
2018-12-18T11:16:51.055Z,8.14
2018-12-18T11:17:51.051Z,8.12
2018-12-18T11:18:51.015Z,8.21
2018-12-18T11:19:51.019Z,8.16
2018-12-18T11:20:50.985Z,8.13
2018-12-18T11:21:50.957Z,8.21
2018-12-18T11:22:50.924Z,8.13
2018-12-18T11:23:50.951Z,8.14
2018-12-18T11:24:50.900Z,8.13
2018-12-18T11:25:50.886Z,8.19
2018-12-18T11:26:50.870Z,8.16
2018-12-18T11:27:50.830Z,8.14
2018-12-18T11:28:50.805Z,8.13
2018-12-18T11:29:50.770Z,8.17
2018-12-18T11:30:50.766Z,8.14
2018-12-18T11:31:50.749Z,8.19
2018-12-18T11:32:50.722Z,8.21
2018-12-18T11:33:50.728Z,8.26
2018-12-18T11:34:50.664Z,8.26
2018-12-18T11:35:50.634Z,8.23
2018-12-18T11:36:50.634Z,8.29
2018-12-18T11:37:50.608Z,8.29
2018-12-18T11:38:50.568Z,8.28
2018-12-18T11:39:50.556Z,8.32
2018-12-18T11:40:50.524Z,8.34
2018-12-18T11:41:50.525Z,8.32
2018-12-18T11:42:50.500Z,8.35
2018-12-18T11:43:50.494Z,8.32
2018-12-18T11:44:50.450Z,8.38
2018-12-18T11:45:50.479Z,8.35
2018-12-18T11:46:50.396Z,8.37
2018-12-18T11:47:50.374Z,8.34
2018-12-18T11:48:50.351Z,8.39
2018-12-18T11:49:50.349Z,8.47
2018-12-18T11:50:50.360Z,8.47
2018-12-18T11:51:50.302Z,8.41
2018-12-18T11:52:50.343Z,8.47
2018-12-18T11:53:50.269Z,8.44
2018-12-18T11:54:50.223Z,8.50
2018-12-18T11:55:50.268Z,8.49
2018-12-18T11:56:50.253Z,8.55
2018-12-18T11:57:50.182Z,8.53
2018-12-18T11:58:50.133Z,8.50
2018-12-18T11:59:50.167Z,8.44
2018-12-18T12:00:50.120Z,8.44
2018-12-18T12:01:50.097Z,8.47
2018-12-18T12:02:50.056Z,8.42
2018-12-18T12:03:50.032Z,8.50
2018-12-18T12:04:50.017Z,8.53
2018-12-18T12:05:49.981Z,8.52
2018-12-18T12:06:49.993Z,8.42
2018-12-18T12:07:49.961Z,8.52
2018-12-18T12:08:49.915Z,8.63
2018-12-18T12:09:49.892Z,8.55
2018-12-18T12:10:49.904Z,8.57
2018-12-18T12:11:49.861Z,8.60
2018-12-18T12:12:49.828Z,8.60
2018-12-18T12:13:49.815Z,8.63
2018-12-18T12:14:49.790Z,8.70
2018-12-18T12:15:49.779Z,8.71
2018-12-18T12:16:49.750Z,8.68
2018-12-18T12:17:49.795Z,8.72
2018-12-18T12:18:49.727Z,8.68
2018-12-18T12:19:49.685Z,8.78
2018-12-18T12:20:49.655Z,8.74
2018-12-18T12:21:49.674Z,8.81
2018-12-18T12:22:49.611Z,8.74
2018-12-18T12:23:49.615Z,8.75
2018-12-18T12:24:49.627Z,8.78
2018-12-18T12:25:49.550Z,8.74
2018-12-18T12:26:49.544Z,8.68
2018-12-18T12:27:49.506Z,8.75
2018-12-18T12:28:49.532Z,8.75
2018-12-18T12:29:49.468Z,8.74
2018-12-18T12:30:49.500Z,8.72
2018-12-18T12:31:49.432Z,8.75
2018-12-18T12:32:49.400Z,8.83
2018-12-18T12:33:49.395Z,8.74
2018-12-18T12:34:49.370Z,8.78
2018-12-18T12:35:49.428Z,8.83
2018-12-18T12:36:49.337Z,8.86
2018-12-18T12:37:49.301Z,8.83
2018-12-18T12:38:49.339Z,8.86
2018-12-18T12:39:49.276Z,8.78
2018-12-18T12:40:49.255Z,8.85
2018-12-18T12:41:49.242Z,8.90
2018-12-18T12:42:49.241Z,8.90
2018-12-18T12:43:49.204Z,8.93
2018-12-18T12:44:49.164Z,8.92
2018-12-18T12:45:49.127Z,8.93
2018-12-18T12:46:49.117Z,9.03
2018-12-18T12:47:49.620Z,8.95
2018-12-18T12:48:49.300Z,9.01
2018-12-18T12:49:49.485Z,9.04
2018-12-18T12:50:49.131Z,9.04
2018-12-18T12:51:49.393Z,8.96
2018-12-18T12:52:48.984Z,9.06
2018-12-18T12:53:49.019Z,9.03
2018-12-18T12:54:48.969Z,9.01
2018-12-18T12:55:48.993Z,9.01
2018-12-18T12:56:48.948Z,8.98
2018-12-18T12:57:48.928Z,9.04
2018-12-18T12:58:48.937Z,8.95
2018-12-18T12:59:48.899Z,8.88
2018-12-18T13:00:48.890Z,8.90
2018-12-18T13:01:48.815Z,8.88
2018-12-18T13:02:48.815Z,8.89
2018-12-18T13:03:48.752Z,8.78
2018-12-18T13:04:48.744Z,8.83
2018-12-18T13:05:48.698Z,8.74
2018-12-18T13:06:48.737Z,8.71
2018-12-18T13:07:48.695Z,8.72
2018-12-18T13:08:48.710Z,8.83
2018-12-18T13:09:48.683Z,8.72
2018-12-18T13:10:48.621Z,8.75
2018-12-18T13:11:48.571Z,8.72
2018-12-18T13:12:48.618Z,8.72
2018-12-18T13:13:48.558Z,8.72
2018-12-18T13:14:48.543Z,8.72
2018-12-18T13:15:48.513Z,8.68
2018-12-18T13:16:48.485Z,8.80
2018-12-18T13:17:48.491Z,8.70